Time;durP1;ratioP1;P1;durP2;ratioP2;P2;SDS_P1;SDS_P2;PMS_P1;PMS_P2;Temp;Humidity;BMP_temperature;BMP_pressure;BME280_temperature;BME280_humidity;BME280_pressure;Samples;Min_cycle;Max_cycle;Signal;HPM_P1;HPM_P2
2021/06/11 00:02:20;;;;;;;0.98;0.93;;;23.10;61.30;;;;;;5103870;28;20061;-41
2021/06/11 00:04:46;;;;;;;1.20;1.10;;;23.10;61.30;;;;;;5102504;28;20088;-41
2021/06/11 00:07:12;;;;;;;1.08;0.98;;;23.10;61.50;;;;;;5103635;28;20028;-41
2021/06/11 00:09:38;;;;;;;0.93;0.80;;;23.10;61.50;;;;;;5103303;28;20384;-41
2021/06/11 00:12:05;;;;;;;1.00;1.00;;;23.10;62.10;;;;;;5103529;28;20024;-42
2021/06/11 00:14:31;;;;;;;1.00;0.90;;;23.10;62.40;;;;;;5103499;28;20028;-42
2021/06/11 00:16:57;;;;;;;1.13;0.95;;;23.20;62.60;;;;;;5103621;28;20024;-41
2021/06/11 00:19:23;;;;;;;0.90;0.90;;;23.10;62.70;;;;;;5103061;28;20066;-41
2021/06/11 00:21:50;;;;;;;1.00;1.00;;;23.10;63.00;;;;;;5103559;28;20028;-41
2021/06/11 00:24:16;;;;;;;1.38;1.02;;;23.20;62.90;;;;;;5115670;28;20876;-42
2021/06/11 00:26:42;;;;;;;1.00;0.90;;;23.10;63.00;;;;;;5123585;28;20032;-41
2021/06/11 00:29:08;;;;;;;1.23;1.10;;;23.20;63.20;;;;;;5123617;28;20055;-41
2021/06/11 00:31:35;;;;;;;2.70;0.95;;;23.20;63.40;;;;;;5123342;28;20024;-42
2021/06/11 00:34:01;;;;;;;0.80;0.77;;;23.20;63.70;;;;;;5123475;28;20026;-41
2021/06/11 00:36:27;;;;;;;1.30;1.20;;;23.20;63.50;;;;;;5123525;28;20024;-42
2021/06/11 00:38:53;;;;;;;0.98;0.90;;;23.20;63.40;;;;;;5123781;28;20039;-40
2021/06/11 00:41:19;;;;;;;1.05;0.95;;;23.20;63.50;;;;;;5123349;28;20027;-41
2021/06/11 00:43:45;;;;;;;1.23;1.13;;;23.30;63.60;;;;;;5123369;28;20590;-41
2021/06/11 00:46:12;;;;;;;1.02;0.90;;;23.20;63.50;;;;;;5123320;28;20047;-40
2021/06/11 00:48:38;;;;;;;1.58;1.10;;;23.30;63.60;;;;;;5123165;28;21060;-42
2021/06/11 00:51:04;;;;;;;0.95;0.90;;;23.30;63.80;;;;;;5123156;28;20032;-41
2021/06/11 00:53:31;;;;;;;1.08;0.98;;;23.30;63.80;;;;;;5123310;28;20031;-41
2021/06/11 00:55:57;;;;;;;1.10;1.00;;;23.30;64.00;;;;;;5122871;28;20102;-41
2021/06/11 00:58:23;;;;;;;1.65;1.20;;;23.30;64.20;;;;;;5122943;28;20079;-41
2021/06/11 01:00:49;;;;;;;1.23;0.90;;;23.30;64.30;;;;;;5122945;28;20027;-41
2021/06/11 01:03:17;;;;;;;1.15;1.05;;;23.30;64.90;;;;;;5123243;28;20039;-41
2021/06/11 01:05:44;;;;;;;1.33;0.90;;;23.30;65.20;;;;;;5123059;28;20114;-43
2021/06/11 01:08:10;;;;;;;1.10;1.00;;;23.30;65.10;;;;;;5123157;28;20114;-41
2021/06/11 01:10:37;;;;;;;1.10;0.90;;;23.30;65.30;;;;;;5104594;28;20678;-41
2021/06/11 01:13:03;;;;;;;1.10;0.90;;;23.30;65.40;;;;;;5122951;28;20031;-41
2021/06/11 01:15:29;;;;;;;1.42;1.20;;;23.30;65.60;;;;;;5122398;28;20024;-42
2021/06/11 01:17:55;;;;;;;1.20;1.10;;;23.30;65.90;;;;;;5105408;28;20077;-41
2021/06/11 01:20:22;;;;;;;1.15;1.10;;;23.30;65.70;;;;;;5105207;28;20028;-42
2021/06/11 01:23:16;;;;;;;1.40;1.10;;;23.30;66.10;;;;;;5106950;28;20056;-41
2021/06/11 01:25:51;;;;;;;1.38;1.20;;;23.30;65.90;;;;;;5126762;28;20024;-41
2021/06/11 01:28:17;;;;;;;1.10;1.05;;;23.30;65.70;;;;;;5126859;28;20035;-41
2021/06/11 01:30:44;;;;;;;1.52;1.40;;;23.40;66.00;;;;;;5125652;28;20484;-42
2021/06/11 01:33:11;;;;;;;1.20;0.90;;;23.40;65.90;;;;;;5108609;28;20055;-41
2021/06/11 01:35:41;;;;;;;;;;;23.40;65.90;;;;;;5127401;28;20028;-41
2021/06/11 01:38:09;;;;;;;1.10;1.00;;;23.40;65.90;;;;;;5125573;28;19974;-41
2021/06/11 01:40:35;;;;;;;1.05;1.02;;;23.40;66.10;;;;;;5125124;28;20032;-41
2021/06/11 01:43:02;;;;;;;1.20;1.10;;;23.40;66.10;;;;;;5125340;28;20030;-41
2021/06/11 01:45:29;;;;;;;0.90;0.90;;;23.40;66.40;;;;;;5125583;28;20016;-41
2021/06/11 01:47:55;;;;;;;1.33;1.17;;;23.40;66.40;;;;;;5126326;28;20046;-41
2021/06/11 01:50:24;;;;;;;1.27;1.17;;;23.40;66.30;;;;;;5108097;28;20054;-41
2021/06/11 01:52:52;;;;;;;1.20;0.90;;;23.40;66.70;;;;;;5108388;28;20051;-41
2021/06/11 01:55:18;;;;;;;1.15;1.00;;;23.40;66.90;;;;;;5125285;28;20451;-43
2021/06/11 01:57:45;;;;;;;1.20;1.10;;;23.40;67.10;;;;;;5125047;28;20823;-41
2021/06/11 02:00:13;;;;;;;1.48;1.38;;;23.40;67.30;;;;;;5126361;28;20495;-41
2021/06/11 02:02:39;;;;;;;1.38;1.27;;;23.40;67.20;;;;;;5124690;28;20052;-41
2021/06/11 02:05:06;;;;;;;2.63;1.20;;;23.40;67.30;;;;;;5125177;28;20038;-41
2021/06/11 02:07:33;;;;;;;1.20;1.10;;;23.40;67.30;;;;;;5124999;28;20024;-42
2021/06/11 02:09:59;;;;;;;1.20;1.10;;;23.40;67.50;;;;;;5125077;28;20042;-41
2021/06/11 02:12:25;;;;;;;1.15;1.00;;;23.40;67.50;;;;;;5124279;28;20108;-41
2021/06/11 02:14:52;;;;;;;1.17;1.08;;;23.40;67.50;;;;;;5124926;28;20035;-38
2021/06/11 02:17:18;;;;;;;1.25;1.15;;;23.40;67.60;;;;;;5124618;28;20031;-42
2021/06/11 02:19:44;;;;;;;1.08;1.00;;;23.40;67.50;;;;;;5124819;28;20034;-42
2021/06/11 02:22:10;;;;;;;0.93;0.90;;;23.40;67.40;;;;;;5124558;28;20579;-41
2021/06/11 02:24:40;;;;;;;1.23;1.13;;;23.40;67.30;;;;;;5124331;28;20038;-41
2021/06/11 02:27:07;;;;;;;1.30;1.20;;;23.40;67.30;;;;;;5123342;28;20947;-41
2021/06/11 02:29:34;;;;;;;1.08;0.98;;;23.40;67.40;;;;;;5125729;28;20031;-40
2021/06/11 02:32:00;;;;;;;;;;;23.40;67.30;;;;;;5126248;28;20031;-40
2021/06/11 02:34:26;;;;;;;1.35;1.25;;;23.50;68.00;;;;;;5126154;28;19931;-42
2021/06/11 02:36:52;;;;;;;1.40;1.30;;;23.50;67.70;;;;;;5126021;27;20051;-41
2021/06/11 02:39:19;;;;;;;0.95;0.95;;;23.40;67.60;;;;;;5125767;28;20069;-41
2021/06/11 02:41:49;;;;;;;1.20;1.10;;;23.50;68.00;;;;;;5125552;28;20059;-40
2021/06/11 02:44:15;;;;;;;0.80;0.80;;;23.50;68.00;;;;;;5124250;28;20027;-40
2021/06/11 02:46:52;;;;;;;1.02;1.02;;;23.40;68.30;;;;;;5124576;28;20751;-40
2021/06/11 02:49:27;;;;;;;1.20;1.10;;;23.40;68.50;;;;;;5106827;28;20040;-41
2021/06/11 02:51:55;;;;;;;1.50;1.00;;;23.40;68.40;;;;;;5107645;28;20760;-41
2021/06/11 02:54:27;;;;;;;1.17;1.08;;;23.40;68.40;;;;;;5103490;28;20125;-40
2021/06/11 02:56:55;;;;;;;1.25;1.15;;;23.40;68.30;;;;;;5103384;28;20031;-40
2021/06/11 02:59:52;;;;;;;1.48;1.13;;;23.40;68.40;;;;;;5115769;28;20039;-41
2021/06/11 03:02:33;;;;;;;1.08;0.98;;;23.40;68.50;;;;;;5110757;28;20046;-42
2021/06/11 03:04:59;;;;;;;1.15;1.05;;;23.40;68.60;;;;;;5125451;28;20027;-41
2021/06/11 03:07:28;;;;;;;1.48;1.10;;;23.40;68.60;;;;;;5123757;28;20125;-42
2021/06/11 03:09:59;;;;;;;1.08;0.98;;;23.40;68.70;;;;;;5123709;28;20459;-41
2021/06/11 03:12:26;;;;;;;1.10;0.90;;;23.40;68.50;;;;;;5124681;28;20032;-41
2021/06/11 03:14:53;;;;;;;1.35;1.13;;;23.40;68.40;;;;;;5125192;28;20059;-42
2021/06/11 03:17:20;;;;;;;0.88;0.88;;;23.40;68.20;;;;;;5106833;28;20590;-42
2021/06/11 03:19:49;;;;;;;1.20;1.00;;;23.40;68.60;;;;;;5123742;28;20036;-43
2021/06/11 03:22:17;;;;;;;0.98;0.90;;;23.40;68.50;;;;;;5122568;28;20030;-42
2021/06/11 03:24:50;;;;;;;1.20;1.10;;;23.40;68.60;;;;;;5124918;28;20036;-41
2021/06/11 03:27:22;;;;;;;0.80;0.80;;;23.40;68.40;;;;;;5122976;28;20559;-41
2021/06/11 03:29:57;;;;;;;1.08;0.95;;;23.40;68.80;;;;;;5107221;28;20036;-41
2021/06/11 03:32:30;;;;;;;0.98;0.95;;;23.40;68.50;;;;;;5123282;28;20031;-41
2021/06/11 03:34:58;;;;;;;1.10;1.00;;;23.40;68.70;;;;;;5106425;28;20102;-41
2021/06/11 03:37:24;;;;;;;1.02;0.95;;;23.40;69.00;;;;;;5123041;28;20027;-41
2021/06/11 03:39:57;;;;;;;1.05;0.95;;;23.40;69.00;;;;;;5123063;28;20416;-42
2021/06/11 03:42:23;;;;;;;1.00;0.90;;;23.40;69.10;;;;;;5124254;28;20027;-41
2021/06/11 03:44:50;;;;;;;1.00;1.00;;;23.40;69.10;;;;;;5124368;28;20066;-42
2021/06/11 03:47:20;;;;;;;1.08;1.00;;;23.40;69.00;;;;;;5124355;28;20023;-41
2021/06/11 03:49:48;;;;;;;0.90;0.90;;;23.40;69.30;;;;;;5124408;28;20032;-41
2021/06/11 03:52:14;;;;;;;1.10;1.00;;;23.30;69.10;;;;;;5102242;28;20024;-41
2021/06/11 03:54:44;;;;;;;0.80;0.80;;;23.30;69.30;;;;;;5103589;28;20032;-41
2021/06/11 03:57:10;;;;;;;0.77;0.77;;;23.30;69.20;;;;;;5103607;28;20063;-41
2021/06/11 03:59:37;;;;;;;0.90;0.90;;;23.40;69.30;;;;;;5102535;28;20035;-42
2021/06/11 04:02:03;;;;;;;0.90;0.90;;;23.40;69.10;;;;;;5103657;28;20024;-41
2021/06/11 04:04:30;;;;;;;1.48;1.00;;;23.30;69.10;;;;;;5102108;28;20024;-41
2021/06/11 04:07:01;;;;;;;1.05;0.95;;;23.30;69.10;;;;;;5102226;28;20077;-41
2021/06/11 04:09:29;;;;;;;0.95;0.88;;;23.40;69.10;;;;;;5102019;28;20032;-41
2021/06/11 04:12:06;;;;;;;1.00;0.90;;;23.40;69.20;;;;;;5115640;28;20031;-42
2021/06/11 04:14:39;;;;;;;0.90;0.90;;;23.40;69.20;;;;;;5105952;28;20039;-41
2021/06/11 04:17:08;;;;;;;0.73;0.73;;;23.40;69.20;;;;;;5122392;28;20019;-41
2021/06/11 04:19:41;;;;;;;0.90;0.90;;;23.40;69.20;;;;;;5101880;28;20020;-41
2021/06/11 04:22:07;;;;;;;1.10;0.95;;;23.40;69.50;;;;;;5106061;28;20020;-41
2021/06/11 04:24:34;;;;;;;0.70;0.70;;;23.40;69.50;;;;;;5121936;28;20035;-40
2021/06/11 04:27:01;;;;;;;0.98;0.90;;;23.30;69.30;;;;;;5122385;28;20015;-41
2021/06/11 04:29:30;;;;;;;0.90;0.90;;;23.30;69.60;;;;;;5105128;28;20513;-41
2021/06/11 04:31:57;;;;;;;0.90;0.90;;;23.30;69.60;;;;;;5122220;28;20031;-41
2021/06/11 04:34:26;;;;;;;0.87;0.87;;;23.30;69.60;;;;;;5122045;28;20080;-41
2021/06/11 04:36:53;;;;;;;1.17;1.08;;;23.30;69.70;;;;;;5122391;28;20027;-41
2021/06/11 04:39:19;;;;;;;;;;;23.30;69.80;;;;;;5123864;28;20548;-41
2021/06/11 04:41:45;;;;;;;0.77;0.75;;;23.30;69.80;;;;;;5123817;28;19971;-41
2021/06/11 04:44:11;;;;;;;0.80;0.80;;;23.30;70.00;;;;;;5123076;28;20131;-39
2021/06/11 04:46:38;;;;;;;0.90;0.90;;;23.30;69.80;;;;;;5123339;28;20024;-41
2021/06/11 04:49:07;;;;;;;0.95;0.90;;;23.30;69.70;;;;;;5123112;28;20032;-42
2021/06/11 04:51:34;;;;;;;0.68;0.68;;;23.30;69.50;;;;;;5122754;28;20566;-42
2021/06/11 04:54:00;;;;;;;0.82;0.82;;;23.30;69.70;;;;;;5122828;28;20032;-41
2021/06/11 04:56:27;;;;;;;0.80;0.80;;;23.30;69.50;;;;;;5123180;28;20031;-45
2021/06/11 04:58:55;;;;;;;0.75;0.75;;;23.30;69.40;;;;;;5121524;28;20055;-43
2021/06/11 05:01:21;;;;;;;0.82;0.82;;;23.30;69.40;;;;;;5123262;28;20053;-41
2021/06/11 05:03:47;;;;;;;0.60;0.60;;;23.30;69.30;;;;;;5122949;28;20020;-41
2021/06/11 05:06:14;;;;;;;0.77;0.77;;;23.30;69.30;;;;;;5123314;28;20061;-41
2021/06/11 05:08:43;;;;;;;0.73;0.73;;;23.30;69.40;;;;;;5123034;28;20043;-41
2021/06/11 05:11:10;;;;;;;0.90;0.90;;;23.30;69.30;;;;;;5123064;28;20770;-41
2021/06/11 05:13:36;;;;;;;0.80;0.80;;;23.30;69.30;;;;;;5122801;28;20059;-41
2021/06/11 05:16:02;;;;;;;0.77;0.77;;;23.30;69.40;;;;;;5123303;28;20044;-42
2021/06/11 05:18:30;;;;;;;1.00;0.90;;;23.30;69.70;;;;;;5121299;28;20091;-41
2021/06/11 05:20:56;;;;;;;0.73;0.73;;;23.30;70.00;;;;;;5122782;28;20044;-41
2021/06/11 05:23:22;;;;;;;0.90;0.90;;;23.30;70.00;;;;;;5122502;28;20481;-42
2021/06/11 05:25:49;;;;;;;1.10;0.90;;;23.30;70.00;;;;;;5122940;28;20256;-42
2021/06/11 05:28:15;;;;;;;1.00;0.70;;;23.30;70.10;;;;;;5122953;28;20567;-42
2021/06/11 05:30:42;;;;;;;1.85;0.80;;;23.20;70.10;;;;;;5122870;28;20031;-40
2021/06/11 05:33:08;;;;;;;0.80;0.80;;;23.30;70.20;;;;;;5122850;28;20032;-41
2021/06/11 05:35:34;;;;;;;0.65;0.65;;;23.20;70.30;;;;;;5122743;28;20031;-41
2021/06/11 05:38:04;;;;;;;0.93;0.82;;;23.20;70.40;;;;;;5122795;28;20784;-41
2021/06/11 05:40:34;;;;;;;0.88;0.88;;;23.20;70.20;;;;;;5123029;28;20027;-40
2021/06/11 05:43:00;;;;;;;0.98;0.90;;;23.20;70.00;;;;;;5122488;28;20023;-42
2021/06/11 05:45:27;;;;;;;1.15;0.90;;;23.20;70.00;;;;;;5122586;28;20031;-41
2021/06/11 05:47:54;;;;;;;0.80;0.80;;;23.20;70.00;;;;;;5122196;28;20792;-41
2021/06/11 05:50:20;;;;;;;0.70;0.70;;;23.30;69.90;;;;;;5121418;28;20035;-40
2021/06/11 05:52:46;;;;;;;0.65;0.65;;;23.20;69.70;;;;;;5122672;28;20413;-41
2021/06/11 05:55:14;;;;;;;0.95;0.93;;;23.20;69.60;;;;;;5122524;28;20027;-42
2021/06/11 05:57:41;;;;;;;0.85;0.85;;;23.20;69.60;;;;;;5122661;28;20488;-42
2021/06/11 06:00:07;;;;;;;;;;;23.20;69.70;;;;;;5123023;28;20032;-42
2021/06/11 06:02:34;;;;;;;0.65;0.65;;;23.20;69.70;;;;;;5125003;28;19904;-41
2021/06/11 06:05:00;;;;;;;1.07;0.70;;;23.20;69.70;;;;;;5126347;28;20032;-41
2021/06/11 06:07:26;;;;;;;0.70;0.70;;;23.20;69.90;;;;;;5126566;28;20429;-42
2021/06/11 06:09:54;;;;;;;0.70;0.70;;;23.20;70.20;;;;;;5126307;28;20038;-41
2021/06/11 06:12:20;;;;;;;;;;;23.20;70.20;;;;;;5109737;28;20057;-41
2021/06/11 06:14:46;;;;;;;1.20;1.00;;;23.20;70.30;;;;;;5105433;28;19912;-41
2021/06/11 06:17:12;;;;;;;0.80;0.80;;;23.20;70.20;;;;;;5105873;28;20503;-41
2021/06/11 06:19:39;;;;;;;1.10;1.00;;;23.20;70.30;;;;;;5124600;28;20030;-41
2021/06/11 06:22:05;;;;;;;0.77;0.77;;;23.20;70.20;;;;;;5126092;28;20059;-42
2021/06/11 06:24:31;;;;;;;0.73;0.73;;;23.20;70.40;;;;;;5125306;28;20036;-41
2021/06/11 06:26:57;;;;;;;0.88;0.73;;;23.20;70.50;;;;;;5126140;28;20020;-41
2021/06/11 06:29:23;;;;;;;0.82;0.82;;;23.20;70.40;;;;;;5125599;28;20807;-41
2021/06/11 06:31:50;;;;;;;0.63;0.63;;;23.20;70.20;;;;;;5126110;28;20099;-41
2021/06/11 06:34:16;;;;;;;0.70;0.70;;;23.20;70.10;;;;;;5126209;28;20581;-40
2021/06/11 06:36:42;;;;;;;0.60;0.60;;;23.20;71.20;;;;;;5125621;28;20023;-42
2021/06/11 06:39:08;;;;;;;0.70;0.70;;;23.20;70.30;;;;;;5125941;28;20103;-41
2021/06/11 06:41:35;;;;;;;0.68;0.68;;;23.20;70.50;;;;;;5125886;28;20106;-41
2021/06/11 06:44:01;;;;;;;0.80;0.80;;;23.20;70.50;;;;;;5125690;28;20023;-41
2021/06/11 06:46:28;;;;;;;0.80;0.80;;;23.20;70.50;;;;;;5125512;28;20027;-41
2021/06/11 06:48:54;;;;;;;1.00;0.80;;;23.20;70.30;;;;;;5125247;28;20047;-43
2021/06/11 06:51:23;;;;;;;0.80;0.80;;;23.20;70.40;;;;;;5125737;28;20024;-41
2021/06/11 06:53:49;;;;;;;0.80;0.80;;;23.20;70.70;;;;;;5124048;28;20643;-40
2021/06/11 06:56:16;;;;;;;1.17;0.90;;;23.20;70.70;;;;;;5125558;28;20035;-42
2021/06/11 06:58:42;;;;;;;0.80;0.80;;;23.20;70.70;;;;;;5125168;28;20052;-40
2021/06/11 07:01:08;;;;;;;1.02;0.90;;;23.20;70.50;;;;;;5125235;28;20031;-41
2021/06/11 07:03:35;;;;;;;1.23;0.70;;;23.20;70.30;;;;;;5125040;28;20027;-42
2021/06/11 07:06:01;;;;;;;1.13;0.85;;;23.20;70.10;;;;;;5123966;28;20030;-40
2021/06/11 07:08:31;;;;;;;0.80;0.80;;;23.20;70.20;;;;;;5125165;28;20059;-42
2021/06/11 07:11:00;;;;;;;0.85;0.85;;;23.20;70.20;;;;;;5125252;28;20020;-41
2021/06/11 07:13:31;;;;;;;0.70;0.70;;;23.20;70.20;;;;;;5124657;28;20085;-41
2021/06/11 07:15:57;;;;;;;1.00;1.00;;;23.20;70.30;;;;;;5123494;28;20039;-41
2021/06/11 07:18:23;;;;;;;0.80;0.80;;;23.20;70.10;;;;;;5124902;28;20111;-42
2021/06/11 07:20:50;;;;;;;0.63;0.63;;;23.20;70.30;;;;;;5125015;28;20079;-41
2021/06/11 07:23:16;;;;;;;0.70;0.68;;;23.20;70.30;;;;;;5124954;28;20047;-42
2021/06/11 07:25:42;;;;;;;0.98;0.95;;;23.20;70.30;;;;;;5124899;28;20072;-42
2021/06/11 07:28:08;;;;;;;0.68;0.68;;;23.20;70.20;;;;;;5124547;28;20691;-41
2021/06/11 07:30:34;;;;;;;0.90;0.90;;;23.20;70.30;;;;;;5124944;28;20054;-42
2021/06/11 07:33:00;;;;;;;0.95;0.90;;;23.20;70.30;;;;;;5124701;28;20018;-42
2021/06/11 07:35:27;;;;;;;0.80;0.80;;;23.20;71.00;;;;;;5124712;28;20038;-40
2021/06/11 07:37:53;;;;;;;0.77;0.77;;;23.20;70.20;;;;;;5123678;28;20102;-41
2021/06/11 07:40:20;;;;;;;0.82;0.82;;;23.20;70.20;;;;;;5123740;28;20127;-41
2021/06/11 07:42:46;;;;;;;0.80;0.80;;;23.20;70.20;;;;;;5124851;28;20062;-41
2021/06/11 07:45:13;;;;;;;1.10;1.00;;;23.20;70.30;;;;;;5124790;28;20045;-41
2021/06/11 07:47:39;;;;;;;0.90;0.90;;;23.20;70.30;;;;;;5123897;28;20035;-42
2021/06/11 07:50:06;;;;;;;1.00;1.00;;;23.20;70.30;;;;;;5123192;28;20806;-41
2021/06/11 07:52:35;;;;;;;0.98;0.88;;;23.20;70.30;;;;;;5124533;28;20023;-43
2021/06/11 07:55:03;;;;;;;0.90;0.90;;;23.20;70.30;;;;;;5124349;28;20441;-42
2021/06/11 07:57:30;;;;;;;1.85;0.90;;;23.20;70.30;;;;;;5123904;28;20035;-41
2021/06/11 07:59:56;;;;;;;1.05;0.95;;;23.20;70.30;;;;;;5124288;28;20047;-42
2021/06/11 08:02:22;;;;;;;0.80;0.80;;;23.20;70.40;;;;;;5124406;28;20091;-41
2021/06/11 08:04:48;;;;;;;2.50;1.02;;;23.20;70.40;;;;;;5124444;28;20027;-41
2021/06/11 08:07:15;;;;;;;0.85;0.80;;;23.20;70.30;;;;;;5123799;28;20028;-41
2021/06/11 08:09:43;;;;;;;0.80;0.70;;;23.20;70.40;;;;;;5124130;28;20042;-41
2021/06/11 08:12:10;;;;;;;0.80;0.80;;;23.20;70.30;;;;;;5124215;28;20454;-41
2021/06/11 08:14:36;;;;;;;;;;;23.20;70.40;;;;;;5124749;28;20046;-41
2021/06/11 08:17:03;;;;;;;1.15;1.05;;;23.20;70.70;;;;;;5123529;28;20638;-41
2021/06/11 08:19:29;;;;;;;1.25;1.10;;;23.20;71.10;;;;;;5123923;27;20032;-41
2021/06/11 08:21:55;;;;;;;1.20;1.10;;;23.20;71.00;;;;;;5123933;28;20035;-41
2021/06/11 08:24:21;;;;;;;1.95;1.30;;;23.10;71.10;;;;;;5123679;28;20024;-42
2021/06/11 08:26:47;;;;;;;1.02;0.93;;;23.10;71.30;;;;;;5122937;28;20052;-42
2021/06/11 08:29:14;;;;;;;1.20;1.10;;;23.20;71.10;;;;;;5123880;28;20403;-41
2021/06/11 08:31:40;;;;;;;1.30;1.20;;;23.20;71.20;;;;;;5123791;28;20030;-41
2021/06/11 08:34:07;;;;;;;1.38;1.27;;;23.10;71.30;;;;;;5123835;28;20028;-41
2021/06/11 08:36:33;;;;;;;1.30;1.20;;;23.20;71.20;;;;;;5123570;28;20054;-41
2021/06/11 08:38:59;;;;;;;1.30;1.20;;;23.20;71.40;;;;;;5123948;28;20020;-41
2021/06/11 08:41:25;;;;;;;1.15;1.00;;;23.20;71.30;;;;;;5106014;28;20039;-41
2021/06/11 08:43:51;;;;;;;1.88;1.60;;;23.20;71.10;;;;;;5101699;28;20024;-41
2021/06/11 08:46:19;;;;;;;1.38;1.27;;;23.20;71.00;;;;;;5084574;28;20028;-42
2021/06/11 08:48:45;;;;;;;1.40;1.30;;;23.10;70.90;;;;;;5113162;28;20122;-42
2021/06/11 08:51:11;;;;;;;1.30;1.20;;;23.10;70.80;;;;;;5123604;28;20027;-41
2021/06/11 08:53:38;;;;;;;1.30;1.20;;;23.10;70.80;;;;;;5123501;28;20023;-42
2021/06/11 08:56:04;;;;;;;1.30;1.20;;;23.20;70.90;;;;;;5123519;28;20147;-41
2021/06/11 08:58:30;;;;;;;1.40;1.30;;;23.20;70.90;;;;;;5123082;28;20314;-42
2021/06/11 09:00:57;;;;;;;1.90;1.35;;;23.10;70.90;;;;;;5123496;28;20036;-41
2021/06/11 09:03:34;;;;;;;1.25;1.15;;;23.20;70.90;;;;;;5123339;28;20024;-43
2021/06/11 09:06:00;;;;;;;1.50;1.40;;;23.20;70.80;;;;;;5123497;28;20028;-41
2021/06/11 09:08:29;;;;;;;1.60;1.25;;;23.20;70.70;;;;;;5123087;28;20031;-41
2021/06/11 09:11:30;;;;;;;1.27;1.17;;;23.20;71.10;;;;;;5122871;28;20514;-40
2021/06/11 09:14:04;;;;;;;1.50;1.40;;;23.10;71.20;;;;;;5059552;28;20041;-41
2021/06/11 09:16:40;;;;;;;1.42;1.33;;;23.20;71.40;;;;;;5042922;28;20494;-41
2021/06/11 09:19:06;;;;;;;1.50;1.40;;;23.20;71.30;;;;;;5073864;28;20059;-41
2021/06/11 09:21:38;;;;;;;1.52;1.40;;;23.10;71.40;;;;;;5079816;28;20016;-41
2021/06/11 09:24:24;;;;;;;1.40;1.30;;;23.10;71.50;;;;;;5079978;28;20040;-41
2021/06/11 09:27:03;;;;;;;1.60;1.50;;;23.10;71.40;;;;;;5079346;28;20023;-41
2021/06/11 09:29:35;;;;;;;1.50;1.40;;;23.10;71.50;;;;;;5079590;28;20089;-41
2021/06/11 09:32:27;;;;;;;1.30;1.20;;;23.10;71.50;;;;;;5079777;28;20225;-41
2021/06/11 09:34:57;;;;;;;1.40;1.30;;;23.10;71.60;;;;;;5057426;28;20088;-41
2021/06/11 09:37:30;;;;;;;1.42;1.30;;;23.10;71.50;;;;;;5044947;28;20040;-41
2021/06/11 09:40:03;;;;;;;1.60;1.50;;;23.10;71.50;;;;;;5068704;28;20039;-43
2021/06/11 09:42:33;;;;;;;1.65;1.55;;;23.10;71.30;;;;;;5083356;28;20029;-41
2021/06/11 09:45:04;;;;;;;1.55;1.45;;;23.10;71.20;;;;;;5083641;28;20039;-41
2021/06/11 09:47:36;;;;;;;1.40;1.30;;;23.10;71.20;;;;;;5083181;28;20058;-41
2021/06/11 09:50:11;;;;;;;1.40;1.30;;;23.10;71.90;;;;;;5102081;28;20036;-41
2021/06/11 09:52:58;;;;;;;1.30;1.20;;;23.10;71.20;;;;;;5106562;28;20012;-41
2021/06/11 09:55:34;;;;;;;1.60;1.50;;;23.10;71.00;;;;;;5106365;28;20091;-42
2021/06/11 09:58:05;;;;;;;1.33;1.23;;;23.10;70.90;;;;;;5105961;28;20052;-42
2021/06/11 10:00:32;;;;;;;1.42;1.33;;;23.10;71.00;;;;;;5106450;28;20028;-42
2021/06/11 10:03:01;;;;;;;1.33;1.23;;;23.10;71.10;;;;;;5106117;28;20020;-41
2021/06/11 10:05:27;;;;;;;1.30;1.20;;;23.10;71.10;;;;;;5106323;28;20039;-41
2021/06/11 10:07:54;;;;;;;1.30;1.20;;;23.10;71.50;;;;;;5105998;28;20024;-41
2021/06/11 10:10:21;;;;;;;1.48;1.38;;;23.10;71.50;;;;;;5114696;28;20027;-42
2021/06/11 10:12:48;;;;;;;1.45;1.35;;;23.10;71.60;;;;;;5126786;28;20046;-41
2021/06/11 10:15:15;;;;;;;1.67;1.58;;;23.10;71.60;;;;;;5125128;28;20023;-41
2021/06/11 10:17:41;;;;;;;;;;;23.10;71.50;;;;;;5126515;28;20027;-40
2021/06/11 10:20:12;;;;;;;1.73;1.58;;;23.10;71.60;;;;;;5125220;28;19959;-40
2021/06/11 10:22:38;;;;;;;1.60;1.50;;;23.10;72.40;;;;;;5124879;28;20032;-42
2021/06/11 10:25:11;;;;;;;1.42;1.33;;;23.10;71.80;;;;;;5126675;28;20027;-41
2021/06/11 10:27:38;;;;;;;1.42;1.33;;;23.00;71.70;;;;;;5125719;28;20031;-42
2021/06/11 10:30:04;;;;;;;1.63;1.52;;;23.10;71.70;;;;;;5124923;28;20034;-41
2021/06/11 10:32:31;;;;;;;1.60;1.50;;;23.10;72.40;;;;;;5126243;28;20027;-41
2021/06/11 10:34:57;;;;;;;1.42;1.33;;;23.10;71.50;;;;;;5126428;28;20034;-42
2021/06/11 10:37:37;;;;;;;1.40;1.30;;;23.00;71.40;;;;;;5126311;28;20034;-41
2021/06/11 10:40:21;;;;;;;1.30;1.20;;;23.00;71.50;;;;;;5125938;28;20032;-41
2021/06/11 10:42:47;;;;;;;1.60;1.30;;;23.00;72.30;;;;;;5125859;28;20020;-41
2021/06/11 10:45:14;;;;;;;1.40;1.30;;;23.10;71.40;;;;;;5125809;28;20030;-41
2021/06/11 10:47:54;;;;;;;1.63;1.52;;;23.00;71.20;;;;;;5123457;28;20036;-42
2021/06/11 10:50:32;;;;;;;1.60;1.50;;;23.10;71.40;;;;;;5125740;28;20035;-41
2021/06/11 10:53:37;;;;;;;1.50;1.40;;;23.10;71.30;;;;;;5125602;28;20019;-42
2021/06/11 10:56:15;;;;;;;1.60;1.50;;;23.00;71.30;;;;;;5122444;28;20036;-42
2021/06/11 10:58:43;;;;;;;1.50;1.40;;;23.00;71.20;;;;;;5125360;28;20051;-42
2021/06/11 11:01:23;;;;;;;1.75;1.30;;;23.00;71.70;;;;;;5125614;28;20087;-41
2021/06/11 11:03:49;;;;;;;1.48;1.38;;;23.00;71.80;;;;;;5125764;28;20103;-41
2021/06/11 11:06:26;;;;;;;1.60;1.48;;;23.00;71.60;;;;;;5125795;28;20019;-42
2021/06/11 11:08:53;;;;;;;1.60;1.50;;;23.00;71.70;;;;;;5125227;28;20046;-42
2021/06/11 11:11:41;;;;;;;1.50;1.40;;;23.00;71.90;;;;;;5125365;28;20032;-42
2021/06/11 11:14:07;;;;;;;1.60;1.50;;;23.00;71.90;;;;;;5125093;28;20124;-43
2021/06/11 11:16:37;;;;;;;1.33;1.23;;;23.00;72.00;;;;;;5125223;28;20024;-41
2021/06/11 11:19:07;;;;;;;1.40;1.30;;;23.00;72.00;;;;;;5125105;28;20047;-41
2021/06/11 11:21:39;;;;;;;1.65;1.55;;;23.00;72.10;;;;;;5123891;28;20027;-42
2021/06/11 11:24:07;;;;;;;1.60;1.50;;;23.00;72.20;;;;;;5125138;28;20054;-40
2021/06/11 11:26:47;;;;;;;1.90;1.80;;;23.00;72.30;;;;;;5125082;28;20062;-43
2021/06/11 11:29:15;;;;;;;1.60;1.50;;;23.00;72.00;;;;;;5124819;28;20039;-43
2021/06/11 11:31:42;;;;;;;2.78;1.75;;;23.00;71.80;;;;;;5123829;28;20077;-41
2021/06/11 11:34:08;;;;;;;1.73;1.63;;;23.00;71.80;;;;;;5125039;28;20105;-41
2021/06/11 11:36:35;;;;;;;1.70;1.60;;;23.00;71.80;;;;;;5124976;28;20024;-41
2021/06/11 11:39:05;;;;;;;1.70;1.60;;;23.00;71.60;;;;;;5124700;28;20072;-41
2021/06/11 11:41:32;;;;;;;1.77;1.67;;;23.00;71.60;;;;;;5124763;28;20028;-41
2021/06/11 11:43:58;;;;;;;1.80;1.53;;;23.00;71.60;;;;;;5124953;28;20571;-41
2021/06/11 11:46:24;;;;;;;1.50;1.40;;;23.00;71.50;;;;;;5124665;28;20023;-41
2021/06/11 11:48:50;;;;;;;1.23;1.13;;;23.00;71.60;;;;;;5124336;28;20043;-41
2021/06/11 11:51:18;;;;;;;1.63;1.52;;;23.00;71.70;;;;;;5124929;28;20116;-41
2021/06/11 11:53:45;;;;;;;1.38;1.27;;;23.00;71.80;;;;;;5124885;28;20027;-41
2021/06/11 11:56:11;;;;;;;1.50;1.40;;;23.00;72.10;;;;;;5124748;28;20033;-41
2021/06/11 11:58:37;;;;;;;1.45;1.35;;;23.00;72.20;;;;;;5124465;28;20059;-42
2021/06/11 12:01:03;;;;;;;1.50;1.40;;;23.00;72.30;;;;;;5124171;28;20023;-41
2021/06/11 12:03:30;;;;;;;1.47;1.37;;;23.00;72.20;;;;;;5124544;28;20791;-41
2021/06/11 12:05:56;;;;;;;1.50;1.40;;;23.00;72.20;;;;;;5124113;28;20053;-40
2021/06/11 12:08:22;;;;;;;1.70;1.60;;;23.00;72.40;;;;;;5124399;28;20040;-40
2021/06/11 12:10:48;;;;;;;1.70;1.60;;;23.00;72.40;;;;;;5123911;28;20049;-41
2021/06/11 12:13:15;;;;;;;1.50;1.40;;;23.00;72.30;;;;;;5124212;28;20027;-41
2021/06/11 12:15:41;;;;;;;1.80;1.50;;;23.00;72.40;;;;;;5124019;28;20154;-41
2021/06/11 12:18:07;;;;;;;1.75;1.65;;;23.00;72.30;;;;;;5122674;28;20023;-41
2021/06/11 12:20:34;;;;;;;1.53;1.43;;;23.00;72.30;;;;;;5122256;28;20039;-41
2021/06/11 12:23:01;;;;;;;1.70;1.60;;;23.00;72.10;;;;;;5124182;28;20505;-40
2021/06/11 12:25:27;;;;;;;;;;;23.00;71.90;;;;;;5124677;28;20088;-41
2021/06/11 12:27:53;;;;;;;1.42;1.33;;;23.10;71.90;;;;;;5124080;28;20006;-41
2021/06/11 12:30:20;;;;;;;1.65;1.40;;;23.10;71.90;;;;;;5122264;28;20023;-41
2021/06/11 12:32:46;;;;;;;1.30;1.20;;;23.10;71.60;;;;;;5105235;28;20442;-41
2021/06/11 12:35:13;;;;;;;1.73;1.63;;;23.00;71.70;;;;;;5103407;28;20031;-41
2021/06/11 12:37:39;;;;;;;1.67;1.58;;;23.10;71.60;;;;;;5102189;28;20024;-41
2021/06/11 12:40:06;;;;;;;1.60;1.50;;;23.10;72.00;;;;;;5103266;28;20081;-42
2021/06/11 12:42:35;;;;;;;1.58;1.48;;;23.10;71.60;;;;;;5103444;28;20032;-41
2021/06/11 12:45:01;;;;;;;1.58;1.48;;;23.10;71.70;;;;;;5102205;28;20044;-41
2021/06/11 12:47:27;;;;;;;1.60;1.50;;;23.10;72.50;;;;;;5110471;28;20068;-41
2021/06/11 12:49:54;;;;;;;1.70;1.60;;;23.10;71.90;;;;;;5114483;28;20042;-41
2021/06/11 12:52:20;;;;;;;1.70;1.60;;;23.10;72.00;;;;;;5123473;28;20053;-41
2021/06/11 12:54:46;;;;;;;1.98;1.77;;;23.10;72.20;;;;;;5123722;28;20047;-42